sensor_id;sensor_type;location;lat;lon;timestamp;temperature;humidity
15625;DHT22;7912;51.376;6.126;2023-11-19T00:00:59;15.60;99.90
15625;DHT22;7912;51.376;6.126;2023-11-19T00:03:33;15.70;99.90
15625;DHT22;7912;51.376;6.126;2023-11-19T00:06:20;15.70;99.90
15625;DHT22;7912;51.376;6.126;2023-11-19T00:08:47;15.70;99.90
15625;DHT22;7912;51.376;6.126;2023-11-19T00:11:24;15.70;99.90
15625;DHT22;7912;51.376;6.126;2023-11-19T00:16:44;15.80;99.90
15625;DHT22;7912;51.376;6.126;2023-11-19T00:19:14;15.80;99.90
15625;DHT22;7912;51.376;6.126;2023-11-19T00:21:45;15.80;99.90
15625;DHT22;7912;51.376;6.126;2023-11-19T00:24:18;15.80;99.90
15625;DHT22;7912;51.376;6.126;2023-11-19T00:26:48;15.90;99.90
15625;DHT22;7912;51.376;6.126;2023-11-19T00:29:17;15.90;99.90
15625;DHT22;7912;51.376;6.126;2023-11-19T00:31:45;15.90;99.90
15625;DHT22;7912;51.376;6.126;2023-11-19T00:34:13;15.90;99.90
15625;DHT22;7912;51.376;6.126;2023-11-19T00:36:44;15.90;99.90
15625;DHT22;7912;51.376;6.126;2023-11-19T00:39:11;16.00;99.90
15625;DHT22;7912;51.376;6.126;2023-11-19T00:41:41;16.00;99.90
15625;DHT22;7912;51.376;6.126;2023-11-19T00:44:09;16.00;99.90
15625;DHT22;7912;51.376;6.126;2023-11-19T00:46:37;16.00;99.90
15625;DHT22;7912;51.376;6.126;2023-11-19T00:49:04;16.00;99.90
15625;DHT22;7912;51.376;6.126;2023-11-19T00:51:33;16.00;99.90
15625;DHT22;7912;51.376;6.126;2023-11-19T00:54:04;16.10;99.90
15625;DHT22;7912;51.376;6.126;2023-11-19T00:56:31;16.10;99.90
15625;DHT22;7912;51.376;6.126;2023-11-19T00:58:59;16.10;99.90
15625;DHT22;7912;51.376;6.126;2023-11-19T01:01:27;16.10;99.90
15625;DHT22;7912;51.376;6.126;2023-11-19T01:04:04;16.10;99.90
15625;DHT22;7912;51.376;6.126;2023-11-19T01:09:55;16.10;99.90
15625;DHT22;7912;51.376;6.126;2023-11-19T01:12:23;16.20;99.90
15625;DHT22;7912;51.376;6.126;2023-11-19T01:14:50;16.10;99.90
15625;DHT22;7912;51.376;6.126;2023-11-19T01:17:19;16.10;99.90
15625;DHT22;7912;51.376;6.126;2023-11-19T01:19:47;16.10;99.90
15625;DHT22;7912;51.376;6.126;2023-11-19T01:22:20;16.10;99.90
15625;DHT22;7912;51.376;6.126;2023-11-19T01:24:53;16.10;99.90
15625;DHT22;7912;51.376;6.126;2023-11-19T01:27:21;16.10;99.90
15625;DHT22;7912;51.376;6.126;2023-11-19T01:29:48;16.10;99.90
15625;DHT22;7912;51.376;6.126;2023-11-19T01:32:15;16.10;99.90
15625;DHT22;7912;51.376;6.126;2023-11-19T01:34:43;16.00;99.90
15625;DHT22;7912;51.376;6.126;2023-11-19T01:37:10;16.00;99.90
15625;DHT22;7912;51.376;6.126;2023-11-19T01:39:39;16.00;99.90
15625;DHT22;7912;51.376;6.126;2023-11-19T01:42:06;16.00;99.90
15625;DHT22;7912;51.376;6.126;2023-11-19T01:44:34;16.00;99.90
15625;DHT22;7912;51.376;6.126;2023-11-19T01:47:01;16.00;99.90
15625;DHT22;7912;51.376;6.126;2023-11-19T01:49:31;16.00;99.90
15625;DHT22;7912;51.376;6.126;2023-11-19T01:51:59;16.00;99.90
15625;DHT22;7912;51.376;6.126;2023-11-19T01:54:28;16.00;99.90
15625;DHT22;7912;51.376;6.126;2023-11-19T01:56:57;16.00;99.90
15625;DHT22;7912;51.376;6.126;2023-11-19T01:59:24;16.00;99.90
15625;DHT22;7912;51.376;6.126;2023-11-19T02:01:55;16.00;99.90
15625;DHT22;7912;51.376;6.126;2023-11-19T02:04:27;16.00;99.90
15625;DHT22;7912;51.376;6.126;2023-11-19T02:06:57;16.00;99.90
15625;DHT22;7912;51.376;6.126;2023-11-19T02:09:25;16.00;99.90
15625;DHT22;7912;51.376;6.126;2023-11-19T02:11:55;16.10;99.90
15625;DHT22;7912;51.376;6.126;2023-11-19T02:14:25;16.10;99.90
15625;DHT22;7912;51.376;6.126;2023-11-19T02:16:53;16.10;99.90
15625;DHT22;7912;51.376;6.126;2023-11-19T02:19:20;16.20;99.90
15625;DHT22;7912;51.376;6.126;2023-11-19T02:21:48;16.20;99.90
15625;DHT22;7912;51.376;6.126;2023-11-19T02:24:16;16.20;99.90
15625;DHT22;7912;51.376;6.126;2023-11-19T02:27:00;16.20;99.90
15625;DHT22;7912;51.376;6.126;2023-11-19T02:29:32;16.20;99.90
15625;DHT22;7912;51.376;6.126;2023-11-19T02:32:01;16.20;99.90
15625;DHT22;7912;51.376;6.126;2023-11-19T02:34:30;16.20;99.90
15625;DHT22;7912;51.376;6.126;2023-11-19T02:36:57;16.20;99.90
15625;DHT22;7912;51.376;6.126;2023-11-19T02:39:25;16.20;99.90
15625;DHT22;7912;51.376;6.126;2023-11-19T02:41:53;16.30;99.90
15625;DHT22;7912;51.376;6.126;2023-11-19T02:44:20;16.20;99.90
15625;DHT22;7912;51.376;6.126;2023-11-19T02:46:47;16.20;99.90
15625;DHT22;7912;51.376;6.126;2023-11-19T02:49:15;16.20;99.90
15625;DHT22;7912;51.376;6.126;2023-11-19T02:51:42;16.30;99.90
15625;DHT22;7912;51.376;6.126;2023-11-19T02:54:10;16.30;99.90
15625;DHT22;7912;51.376;6.126;2023-11-19T02:56:37;16.30;99.90
15625;DHT22;7912;51.376;6.126;2023-11-19T02:59:06;16.20;99.90
15625;DHT22;7912;51.376;6.126;2023-11-19T03:01:36;16.20;99.90
15625;DHT22;7912;51.376;6.126;2023-11-19T03:04:03;16.20;99.90
15625;DHT22;7912;51.376;6.126;2023-11-19T03:06:31;16.10;99.90
15625;DHT22;7912;51.376;6.126;2023-11-19T03:08:59;16.10;99.90
15625;DHT22;7912;51.376;6.126;2023-11-19T03:11:32;16.00;99.90
15625;DHT22;7912;51.376;6.126;2023-11-19T03:14:00;16.00;99.90
15625;DHT22;7912;51.376;6.126;2023-11-19T03:16:27;16.00;99.90
15625;DHT22;7912;51.376;6.126;2023-11-19T03:18:54;15.90;99.90
15625;DHT22;7912;51.376;6.126;2023-11-19T03:21:29;15.90;99.90
15625;DHT22;7912;51.376;6.126;2023-11-19T03:23:56;15.90;99.90
15625;DHT22;7912;51.376;6.126;2023-11-19T03:26:29;15.80;99.90
15625;DHT22;7912;51.376;6.126;2023-11-19T03:28:57;15.80;99.90
15625;DHT22;7912;51.376;6.126;2023-11-19T03:31:24;15.70;99.90
15625;DHT22;7912;51.376;6.126;2023-11-19T03:33:52;15.70;99.90
15625;DHT22;7912;51.376;6.126;2023-11-19T03:36:21;15.70;99.90
15625;DHT22;7912;51.376;6.126;2023-11-19T03:38:49;15.70;99.90
15625;DHT22;7912;51.376;6.126;2023-11-19T03:41:16;15.60;99.90
15625;DHT22;7912;51.376;6.126;2023-11-19T03:43:44;15.60;99.90
15625;DHT22;7912;51.376;6.126;2023-11-19T03:46:21;15.60;99.90
15625;DHT22;7912;51.376;6.126;2023-11-19T03:48:49;15.50;99.90
15625;DHT22;7912;51.376;6.126;2023-11-19T03:51:17;15.50;99.90
15625;DHT22;7912;51.376;6.126;2023-11-19T03:53:45;15.50;99.90
15625;DHT22;7912;51.376;6.126;2023-11-19T03:56:12;15.50;99.90
15625;DHT22;7912;51.376;6.126;2023-11-19T03:58:40;15.50;99.90
15625;DHT22;7912;51.376;6.126;2023-11-19T04:01:13;15.50;99.90
15625;DHT22;7912;51.376;6.126;2023-11-19T04:03:41;15.50;99.90
15625;DHT22;7912;51.376;6.126;2023-11-19T04:06:11;15.50;99.90
15625;DHT22;7912;51.376;6.126;2023-11-19T04:08:38;15.50;99.90
15625;DHT22;7912;51.376;6.126;2023-11-19T04:11:05;15.50;99.90
15625;DHT22;7912;51.376;6.126;2023-11-19T04:13:33;15.50;99.90
15625;DHT22;7912;51.376;6.126;2023-11-19T04:16:00;15.50;99.90
15625;DHT22;7912;51.376;6.126;2023-11-19T04:18:28;15.60;99.90
15625;DHT22;7912;51.376;6.126;2023-11-19T04:20:55;15.50;99.90
15625;DHT22;7912;51.376;6.126;2023-11-19T04:23:23;15.60;99.90
15625;DHT22;7912;51.376;6.126;2023-11-19T04:25:51;15.60;99.90
15625;DHT22;7912;51.376;6.126;2023-11-19T04:28:19;15.60;99.90
15625;DHT22;7912;51.376;6.126;2023-11-19T04:30:46;15.60;99.90
15625;DHT22;7912;51.376;6.126;2023-11-19T04:33:13;15.60;99.90
15625;DHT22;7912;51.376;6.126;2023-11-19T04:35:41;15.60;99.90
15625;DHT22;7912;51.376;6.126;2023-11-19T04:38:09;15.50;99.90
15625;DHT22;7912;51.376;6.126;2023-11-19T04:40:36;15.50;99.90
15625;DHT22;7912;51.376;6.126;2023-11-19T04:43:03;15.50;99.90
15625;DHT22;7912;51.376;6.126;2023-11-19T04:45:31;15.50;99.90
15625;DHT22;7912;51.376;6.126;2023-11-19T04:47:59;15.50;99.90
15625;DHT22;7912;51.376;6.126;2023-11-19T04:50:26;15.50;99.90
15625;DHT22;7912;51.376;6.126;2023-11-19T04:52:54;15.40;99.90
15625;DHT22;7912;51.376;6.126;2023-11-19T04:55:26;15.40;99.90
15625;DHT22;7912;51.376;6.126;2023-11-19T04:57:54;15.40;99.90
15625;DHT22;7912;51.376;6.126;2023-11-19T05:00:21;15.40;99.90
15625;DHT22;7912;51.376;6.126;2023-11-19T05:02:49;15.40;99.90
15625;DHT22;7912;51.376;6.126;2023-11-19T05:05:17;15.40;99.90
15625;DHT22;7912;51.376;6.126;2023-11-19T05:07:45;15.40;99.90
15625;DHT22;7912;51.376;6.126;2023-11-19T05:10:12;15.40;99.90
15625;DHT22;7912;51.376;6.126;2023-11-19T05:12:40;15.40;99.90
15625;DHT22;7912;51.376;6.126;2023-11-19T05:15:08;15.50;99.90
15625;DHT22;7912;51.376;6.126;2023-11-19T05:17:36;15.50;99.90
15625;DHT22;7912;51.376;6.126;2023-11-19T05:20:04;15.50;99.90
15625;DHT22;7912;51.376;6.126;2023-11-19T05:22:41;15.50;99.90
15625;DHT22;7912;51.376;6.126;2023-11-19T05:25:09;15.50;99.90
15625;DHT22;7912;51.376;6.126;2023-11-19T05:27:38;15.50;99.90
15625;DHT22;7912;51.376;6.126;2023-11-19T05:30:06;15.50;99.90
15625;DHT22;7912;51.376;6.126;2023-11-19T05:32:34;15.50;99.90
15625;DHT22;7912;51.376;6.126;2023-11-19T05:35:02;15.50;99.90
15625;DHT22;7912;51.376;6.126;2023-11-19T05:37:29;15.50;99.90
15625;DHT22;7912;51.376;6.126;2023-11-19T05:39:56;15.50;99.90
15625;DHT22;7912;51.376;6.126;2023-11-19T05:42:24;15.50;99.90
15625;DHT22;7912;51.376;6.126;2023-11-19T05:44:51;15.50;99.90
15625;DHT22;7912;51.376;6.126;2023-11-19T05:47:18;15.50;99.90
15625;DHT22;7912;51.376;6.126;2023-11-19T05:49:46;15.50;99.90
15625;DHT22;7912;51.376;6.126;2023-11-19T05:52:13;15.50;99.90
15625;DHT22;7912;51.376;6.126;2023-11-19T05:54:40;15.50;99.90
15625;DHT22;7912;51.376;6.126;2023-11-19T05:57:08;15.50;99.90
15625;DHT22;7912;51.376;6.126;2023-11-19T05:59:36;15.50;99.90
15625;DHT22;7912;51.376;6.126;2023-11-19T06:02:03;15.40;99.90
15625;DHT22;7912;51.376;6.126;2023-11-19T06:04:31;15.40;99.90
15625;DHT22;7912;51.376;6.126;2023-11-19T06:06:58;15.40;99.90
15625;DHT22;7912;51.376;6.126;2023-11-19T06:09:26;15.30;99.90
15625;DHT22;7912;51.376;6.126;2023-11-19T06:11:53;15.30;99.90
15625;DHT22;7912;51.376;6.126;2023-11-19T06:14:22;15.30;99.90
15625;DHT22;7912;51.376;6.126;2023-11-19T06:16:51;15.20;99.90
15625;DHT22;7912;51.376;6.126;2023-11-19T06:19:18;15.20;99.90
15625;DHT22;7912;51.376;6.126;2023-11-19T06:21:45;15.10;99.90
15625;DHT22;7912;51.376;6.126;2023-11-19T06:24:13;15.10;99.90
15625;DHT22;7912;51.376;6.126;2023-11-19T06:26:40;15.10;99.90
15625;DHT22;7912;51.376;6.126;2023-11-19T06:29:08;15.10;99.90
15625;DHT22;7912;51.376;6.126;2023-11-19T06:31:35;15.00;99.90
15625;DHT22;7912;51.376;6.126;2023-11-19T06:34:03;15.00;99.90
15625;DHT22;7912;51.376;6.126;2023-11-19T06:36:31;14.90;99.90
15625;DHT22;7912;51.376;6.126;2023-11-19T06:38:59;14.90;99.90
15625;DHT22;7912;51.376;6.126;2023-11-19T06:41:27;14.90;99.90
15625;DHT22;7912;51.376;6.126;2023-11-19T06:43:56;14.90;99.90
15625;DHT22;7912;51.376;6.126;2023-11-19T06:46:23;14.80;99.90
15625;DHT22;7912;51.376;6.126;2023-11-19T06:48:50;14.80;99.90
15625;DHT22;7912;51.376;6.126;2023-11-19T06:51:18;14.80;99.90
15625;DHT22;7912;51.376;6.126;2023-11-19T06:53:46;14.70;99.90
15625;DHT22;7912;51.376;6.126;2023-11-19T06:56:24;14.70;99.90
15625;DHT22;7912;51.376;6.126;2023-11-19T06:58:51;14.70;99.90
15625;DHT22;7912;51.376;6.126;2023-11-19T07:01:19;14.60;99.90
15625;DHT22;7912;51.376;6.126;2023-11-19T07:03:47;14.60;99.90
15625;DHT22;7912;51.376;6.126;2023-11-19T07:06:16;14.60;99.90
15625;DHT22;7912;51.376;6.126;2023-11-19T07:08:44;14.50;99.90
15625;DHT22;7912;51.376;6.126;2023-11-19T07:11:14;14.50;99.90
15625;DHT22;7912;51.376;6.126;2023-11-19T07:13:43;14.50;99.90
15625;DHT22;7912;51.376;6.126;2023-11-19T07:16:14;14.40;99.90
15625;DHT22;7912;51.376;6.126;2023-11-19T07:18:45;14.40;99.90
15625;DHT22;7912;51.376;6.126;2023-11-19T07:21:16;14.40;99.90
15625;DHT22;7912;51.376;6.126;2023-11-19T07:23:43;14.40;99.90
15625;DHT22;7912;51.376;6.126;2023-11-19T07:26:15;14.30;99.90
15625;DHT22;7912;51.376;6.126;2023-11-19T07:28:43;14.30;99.90
15625;DHT22;7912;51.376;6.126;2023-11-19T07:31:13;14.30;99.90
15625;DHT22;7912;51.376;6.126;2023-11-19T07:33:40;14.30;99.90
15625;DHT22;7912;51.376;6.126;2023-11-19T07:36:11;14.30;99.90
15625;DHT22;7912;51.376;6.126;2023-11-19T07:38:39;14.30;99.90
15625;DHT22;7912;51.376;6.126;2023-11-19T07:41:06;14.30;99.90
15625;DHT22;7912;51.376;6.126;2023-11-19T07:43:36;14.30;99.90
15625;DHT22;7912;51.376;6.126;2023-11-19T07:46:04;14.30;99.90
15625;DHT22;7912;51.376;6.126;2023-11-19T07:48:31;14.30;99.90
15625;DHT22;7912;51.376;6.126;2023-11-19T07:50:58;14.30;99.90
15625;DHT22;7912;51.376;6.126;2023-11-19T07:53:26;14.30;99.90
15625;DHT22;7912;51.376;6.126;2023-11-19T07:55:53;14.30;99.90
15625;DHT22;7912;51.376;6.126;2023-11-19T07:58:25;14.30;99.90
15625;DHT22;7912;51.376;6.126;2023-11-19T08:00:52;14.40;99.90
15625;DHT22;7912;51.376;6.126;2023-11-19T08:03:20;14.40;99.90
15625;DHT22;7912;51.376;6.126;2023-11-19T08:05:49;14.40;99.90
15625;DHT22;7912;51.376;6.126;2023-11-19T08:08:16;14.40;99.90
15625;DHT22;7912;51.376;6.126;2023-11-19T08:10:44;14.40;99.90
15625;DHT22;7912;51.376;6.126;2023-11-19T08:13:11;14.40;99.90
15625;DHT22;7912;51.376;6.126;2023-11-19T08:15:39;14.50;99.90
15625;DHT22;7912;51.376;6.126;2023-11-19T08:18:07;14.50;99.90
15625;DHT22;7912;51.376;6.126;2023-11-19T08:20:36;14.50;99.90
15625;DHT22;7912;51.376;6.126;2023-11-19T08:23:03;14.60;99.90
15625;DHT22;7912;51.376;6.126;2023-11-19T08:28:56;14.60;99.90
15625;DHT22;7912;51.376;6.126;2023-11-19T08:31:25;14.60;99.90
15625;DHT22;7912;51.376;6.126;2023-11-19T08:33:52;14.60;99.90
15625;DHT22;7912;51.376;6.126;2023-11-19T08:36:19;14.60;99.90
15625;DHT22;7912;51.376;6.126;2023-11-19T08:38:47;14.70;99.90
15625;DHT22;7912;51.376;6.126;2023-11-19T08:41:17;14.70;99.90
15625;DHT22;7912;51.376;6.126;2023-11-19T08:43:46;14.70;99.90
15625;DHT22;7912;51.376;6.126;2023-11-19T08:46:13;14.80;99.90
15625;DHT22;7912;51.376;6.126;2023-11-19T08:48:40;14.80;99.90
15625;DHT22;7912;51.376;6.126;2023-11-19T08:51:08;14.90;99.90
15625;DHT22;7912;51.376;6.126;2023-11-19T08:53:35;14.90;99.90
15625;DHT22;7912;51.376;6.126;2023-11-19T08:56:03;15.00;99.90
15625;DHT22;7912;51.376;6.126;2023-11-19T08:58:30;15.00;99.90
15625;DHT22;7912;51.376;6.126;2023-11-19T09:00:58;15.10;99.90
15625;DHT22;7912;51.376;6.126;2023-11-19T09:03:25;15.20;99.90
15625;DHT22;7912;51.376;6.126;2023-11-19T09:05:53;15.20;99.90
15625;DHT22;7912;51.376;6.126;2023-11-19T09:08:21;15.30;99.90
15625;DHT22;7912;51.376;6.126;2023-11-19T09:10:48;15.40;99.90
15625;DHT22;7912;51.376;6.126;2023-11-19T09:13:15;15.40;99.90
15625;DHT22;7912;51.376;6.126;2023-11-19T09:15:43;15.50;99.90
15625;DHT22;7912;51.376;6.126;2023-11-19T09:18:10;15.50;99.90
15625;DHT22;7912;51.376;6.126;2023-11-19T09:20:39;15.60;99.90
15625;DHT22;7912;51.376;6.126;2023-11-19T09:23:06;15.60;99.90
15625;DHT22;7912;51.376;6.126;2023-11-19T09:25:36;15.60;99.90
15625;DHT22;7912;51.376;6.126;2023-11-19T09:28:06;15.60;99.90
15625;DHT22;7912;51.376;6.126;2023-11-19T09:30:36;15.60;99.90
15625;DHT22;7912;51.376;6.126;2023-11-19T09:33:03;15.70;99.90
15625;DHT22;7912;51.376;6.126;2023-11-19T09:35:31;15.80;99.90
15625;DHT22;7912;51.376;6.126;2023-11-19T09:37:58;15.80;99.90
15625;DHT22;7912;51.376;6.126;2023-11-19T09:40:28;15.90;99.90
15625;DHT22;7912;51.376;6.126;2023-11-19T09:42:58;15.90;99.90
15625;DHT22;7912;51.376;6.126;2023-11-19T09:45:28;16.00;99.90
15625;DHT22;7912;51.376;6.126;2023-11-19T09:47:57;16.10;99.90
15625;DHT22;7912;51.376;6.126;2023-11-19T09:50:48;16.20;99.90
15625;DHT22;7912;51.376;6.126;2023-11-19T09:53:17;16.20;99.90
15625;DHT22;7912;51.376;6.126;2023-11-19T09:55:47;16.30;99.90
15625;DHT22;7912;51.376;6.126;2023-11-19T09:58:14;16.40;99.90
15625;DHT22;7912;51.376;6.126;2023-11-19T10:00:42;16.40;99.90
15625;DHT22;7912;51.376;6.126;2023-11-19T10:03:14;16.40;99.90
15625;DHT22;7912;51.376;6.126;2023-11-19T10:05:42;16.40;99.90
15625;DHT22;7912;51.376;6.126;2023-11-19T10:08:09;16.40;99.90
15625;DHT22;7912;51.376;6.126;2023-11-19T10:10:38;16.50;99.90
15625;DHT22;7912;51.376;6.126;2023-11-19T10:13:05;16.50;99.90
15625;DHT22;7912;51.376;6.126;2023-11-19T10:15:38;16.50;99.90
15625;DHT22;7912;51.376;6.126;2023-11-19T10:18:06;16.50;99.90
15625;DHT22;7912;51.376;6.126;2023-11-19T10:20:37;16.60;99.90
15625;DHT22;7912;51.376;6.126;2023-11-19T10:23:07;16.70;99.90
15625;DHT22;7912;51.376;6.126;2023-11-19T10:25:35;16.70;99.90
15625;DHT22;7912;51.376;6.126;2023-11-19T10:28:03;16.80;99.90
15625;DHT22;7912;51.376;6.126;2023-11-19T10:30:30;16.80;99.90
15625;DHT22;7912;51.376;6.126;2023-11-19T10:33:04;16.80;99.90
15625;DHT22;7912;51.376;6.126;2023-11-19T10:35:50;16.80;99.90
15625;DHT22;7912;51.376;6.126;2023-11-19T10:38:29;16.80;99.90
15625;DHT22;7912;51.376;6.126;2023-11-19T10:41:04;16.80;99.90
15625;DHT22;7912;51.376;6.126;2023-11-19T10:43:45;16.80;99.90
15625;DHT22;7912;51.376;6.126;2023-11-19T10:46:13;16.90;99.90
15625;DHT22;7912;51.376;6.126;2023-11-19T10:48:41;16.90;99.90
15625;DHT22;7912;51.376;6.126;2023-11-19T10:51:08;16.90;99.90
15625;DHT22;7912;51.376;6.126;2023-11-19T10:53:38;17.00;99.90
15625;DHT22;7912;51.376;6.126;2023-11-19T10:56:10;17.00;99.90
15625;DHT22;7912;51.376;6.126;2023-11-19T10:58:42;17.10;99.90
15625;DHT22;7912;51.376;6.126;2023-11-19T11:01:39;17.10;99.90
15625;DHT22;7912;51.376;6.126;2023-11-19T11:04:15;17.20;99.90
15625;DHT22;7912;51.376;6.126;2023-11-19T11:06:50;17.20;99.90
15625;DHT22;7912;51.376;6.126;2023-11-19T11:09:18;17.20;99.90
15625;DHT22;7912;51.376;6.126;2023-11-19T11:11:50;17.30;99.90
15625;DHT22;7912;51.376;6.126;2023-11-19T11:14:20;17.40;99.90
15625;DHT22;7912;51.376;6.126;2023-11-19T11:16:49;17.50;99.90
15625;DHT22;7912;51.376;6.126;2023-11-19T11:19:35;17.50;99.90
15625;DHT22;7912;51.376;6.126;2023-11-19T11:22:04;17.60;99.90
15625;DHT22;7912;51.376;6.126;2023-11-19T11:25:02;17.60;99.90
15625;DHT22;7912;51.376;6.126;2023-11-19T11:39:47;17.60;99.90
15625;DHT22;7912;51.376;6.126;2023-11-19T11:45:06;17.60;99.90
15625;DHT22;7912;51.376;6.126;2023-11-19T11:50:13;17.60;99.90
15625;DHT22;7912;51.376;6.126;2023-11-19T11:53:17;17.60;99.90
15625;DHT22;7912;51.376;6.126;2023-11-19T11:58:20;17.60;99.90
15625;DHT22;7912;51.376;6.126;2023-11-19T12:00:52;17.60;99.90
15625;DHT22;7912;51.376;6.126;2023-11-19T12:03:21;17.60;99.90
15625;DHT22;7912;51.376;6.126;2023-11-19T12:08:59;17.60;99.90
15625;DHT22;7912;51.376;6.126;2023-11-19T12:11:28;17.60;99.90
15625;DHT22;7912;51.376;6.126;2023-11-19T12:13:57;17.50;99.90
15625;DHT22;7912;51.376;6.126;2023-11-19T12:16:29;17.50;99.90
15625;DHT22;7912;51.376;6.126;2023-11-19T12:19:03;17.40;99.90
15625;DHT22;7912;51.376;6.126;2023-11-19T12:21:32;17.30;99.90
15625;DHT22;7912;51.376;6.126;2023-11-19T12:24:00;17.20;99.90
15625;DHT22;7912;51.376;6.126;2023-11-19T12:26:38;17.10;99.90
15625;DHT22;7912;51.376;6.126;2023-11-19T12:29:07;16.90;99.90
15625;DHT22;7912;51.376;6.126;2023-11-19T12:31:36;16.80;99.90
15625;DHT22;7912;51.376;6.126;2023-11-19T12:34:07;16.70;99.90
15625;DHT22;7912;51.376;6.126;2023-11-19T12:36:40;16.60;99.90
15625;DHT22;7912;51.376;6.126;2023-11-19T12:39:08;16.60;99.90
15625;DHT22;7912;51.376;6.126;2023-11-19T12:41:49;16.50;99.90
15625;DHT22;7912;51.376;6.126;2023-11-19T12:44:19;16.50;99.90
15625;DHT22;7912;51.376;6.126;2023-11-19T12:46:46;16.50;99.90
15625;DHT22;7912;51.376;6.126;2023-11-19T12:49:26;16.50;99.90
15625;DHT22;7912;51.376;6.126;2023-11-19T12:51:53;16.50;99.90
15625;DHT22;7912;51.376;6.126;2023-11-19T12:54:32;16.40;99.90
15625;DHT22;7912;51.376;6.126;2023-11-19T12:57:00;16.40;99.90
15625;DHT22;7912;51.376;6.126;2023-11-19T12:59:28;16.40;99.90
15625;DHT22;7912;51.376;6.126;2023-11-19T13:01:59;16.40;99.90
15625;DHT22;7912;51.376;6.126;2023-11-19T13:04:30;16.40;99.90
15625;DHT22;7912;51.376;6.126;2023-11-19T13:07:00;16.40;99.90
15625;DHT22;7912;51.376;6.126;2023-11-19T13:09:32;16.40;99.90
15625;DHT22;7912;51.376;6.126;2023-11-19T13:11:59;16.40;99.90
15625;DHT22;7912;51.376;6.126;2023-11-19T13:14:39;16.40;99.90
15625;DHT22;7912;51.376;6.126;2023-11-19T13:17:13;16.40;99.90
15625;DHT22;7912;51.376;6.126;2023-11-19T13:19:41;16.40;99.90
15625;DHT22;7912;51.376;6.126;2023-11-19T13:22:08;16.40;99.90
15625;DHT22;7912;51.376;6.126;2023-11-19T13:24:36;16.40;99.90
15625;DHT22;7912;51.376;6.126;2023-11-19T13:27:04;16.40;99.90
15625;DHT22;7912;51.376;6.126;2023-11-19T13:29:31;16.40;99.90
15625;DHT22;7912;51.376;6.126;2023-11-19T13:32:00;16.40;99.90
15625;DHT22;7912;51.376;6.126;2023-11-19T13:34:27;16.40;99.90
15625;DHT22;7912;51.376;6.126;2023-11-19T13:36:55;16.40;99.90
15625;DHT22;7912;51.376;6.126;2023-11-19T13:39:23;16.40;99.90
15625;DHT22;7912;51.376;6.126;2023-11-19T13:41:51;16.30;99.90
15625;DHT22;7912;51.376;6.126;2023-11-19T13:44:18;16.30;99.90
15625;DHT22;7912;51.376;6.126;2023-11-19T13:46:45;16.20;99.90
15625;DHT22;7912;51.376;6.126;2023-11-19T13:49:14;16.10;99.90
15625;DHT22;7912;51.376;6.126;2023-11-19T13:51:42;16.00;99.90
15625;DHT22;7912;51.376;6.126;2023-11-19T13:54:09;16.00;99.90
15625;DHT22;7912;51.376;6.126;2023-11-19T13:56:37;15.90;99.90
15625;DHT22;7912;51.376;6.126;2023-11-19T13:59:04;15.90;99.90
15625;DHT22;7912;51.376;6.126;2023-11-19T14:01:32;15.90;99.90
15625;DHT22;7912;51.376;6.126;2023-11-19T14:03:59;15.80;99.90
15625;DHT22;7912;51.376;6.126;2023-11-19T14:06:26;15.80;99.90
15625;DHT22;7912;51.376;6.126;2023-11-19T14:08:54;15.80;99.90
15625;DHT22;7912;51.376;6.126;2023-11-19T14:11:21;15.70;99.90
15625;DHT22;7912;51.376;6.126;2023-11-19T14:14:07;15.80;99.90
15625;DHT22;7912;51.376;6.126;2023-11-19T14:16:35;15.80;99.90
15625;DHT22;7912;51.376;6.126;2023-11-19T14:19:02;15.80;99.90
15625;DHT22;7912;51.376;6.126;2023-11-19T14:21:29;15.90;99.90
15625;DHT22;7912;51.376;6.126;2023-11-19T14:23:57;15.80;99.90
15625;DHT22;7912;51.376;6.126;2023-11-19T14:26:25;15.80;99.90
15625;DHT22;7912;51.376;6.126;2023-11-19T14:28:53;15.80;99.90
15625;DHT22;7912;51.376;6.126;2023-11-19T14:31:22;15.70;99.90
15625;DHT22;7912;51.376;6.126;2023-11-19T14:33:49;15.70;99.90
15625;DHT22;7912;51.376;6.126;2023-11-19T14:36:16;15.60;99.90
15625;DHT22;7912;51.376;6.126;2023-11-19T14:38:43;15.60;99.90
15625;DHT22;7912;51.376;6.126;2023-11-19T14:41:11;15.60;99.90
15625;DHT22;7912;51.376;6.126;2023-11-19T14:43:39;15.60;99.90
15625;DHT22;7912;51.376;6.126;2023-11-19T14:46:07;15.60;99.90
15625;DHT22;7912;51.376;6.126;2023-11-19T14:48:36;15.50;99.90
15625;DHT22;7912;51.376;6.126;2023-11-19T14:51:04;15.50;99.90
15625;DHT22;7912;51.376;6.126;2023-11-19T14:53:32;15.40;99.90
15625;DHT22;7912;51.376;6.126;2023-11-19T14:55:59;15.40;99.90
15625;DHT22;7912;51.376;6.126;2023-11-19T14:58:27;15.40;99.90
15625;DHT22;7912;51.376;6.126;2023-11-19T15:00:54;15.30;99.90
15625;DHT22;7912;51.376;6.126;2023-11-19T15:03:22;15.30;99.90
15625;DHT22;7912;51.376;6.126;2023-11-19T15:05:49;15.30;99.90
15625;DHT22;7912;51.376;6.126;2023-11-19T15:08:17;15.30;99.90
15625;DHT22;7912;51.376;6.126;2023-11-19T15:10:45;15.20;99.90
15625;DHT22;7912;51.376;6.126;2023-11-19T15:13:13;15.20;99.90
15625;DHT22;7912;51.376;6.126;2023-11-19T15:15:41;15.20;99.90
15625;DHT22;7912;51.376;6.126;2023-11-19T15:18:09;15.20;99.90
15625;DHT22;7912;51.376;6.126;2023-11-19T15:20:40;15.10;99.90
15625;DHT22;7912;51.376;6.126;2023-11-19T15:23:07;15.10;99.90
15625;DHT22;7912;51.376;6.126;2023-11-19T15:25:36;15.10;99.90
15625;DHT22;7912;51.376;6.126;2023-11-19T15:28:03;15.10;99.90
15625;DHT22;7912;51.376;6.126;2023-11-19T15:30:31;15.00;99.90
15625;DHT22;7912;51.376;6.126;2023-11-19T15:32:58;15.10;99.90
15625;DHT22;7912;51.376;6.126;2023-11-19T15:35:25;15.00;99.90
15625;DHT22;7912;51.376;6.126;2023-11-19T15:37:53;15.10;99.90
15625;DHT22;7912;51.376;6.126;2023-11-19T15:40:20;15.00;99.90
15625;DHT22;7912;51.376;6.126;2023-11-19T15:42:48;15.00;99.90
15625;DHT22;7912;51.376;6.126;2023-11-19T15:45:15;15.00;99.90
15625;DHT22;7912;51.376;6.126;2023-11-19T15:47:43;15.00;99.90
15625;DHT22;7912;51.376;6.126;2023-11-19T15:50:10;15.00;99.90
15625;DHT22;7912;51.376;6.126;2023-11-19T15:52:38;15.00;99.90
15625;DHT22;7912;51.376;6.126;2023-11-19T15:55:06;14.90;99.90
15625;DHT22;7912;51.376;6.126;2023-11-19T15:57:33;14.90;99.90
15625;DHT22;7912;51.376;6.126;2023-11-19T16:00:01;14.90;99.90
15625;DHT22;7912;51.376;6.126;2023-11-19T16:02:28;14.90;99.90
15625;DHT22;7912;51.376;6.126;2023-11-19T16:04:56;14.80;99.90
15625;DHT22;7912;51.376;6.126;2023-11-19T16:07:23;14.80;99.90
15625;DHT22;7912;51.376;6.126;2023-11-19T16:09:50;14.80;99.90
15625;DHT22;7912;51.376;6.126;2023-11-19T16:12:19;14.70;99.90
15625;DHT22;7912;51.376;6.126;2023-11-19T16:14:46;14.70;99.90
15625;DHT22;7912;51.376;6.126;2023-11-19T16:17:13;14.70;99.90
15625;DHT22;7912;51.376;6.126;2023-11-19T16:19:41;14.70;99.90
15625;DHT22;7912;51.376;6.126;2023-11-19T16:22:09;14.60;99.90
15625;DHT22;7912;51.376;6.126;2023-11-19T16:24:37;14.60;99.90
15625;DHT22;7912;51.376;6.126;2023-11-19T16:27:04;14.60;99.90
15625;DHT22;7912;51.376;6.126;2023-11-19T16:29:32;14.60;99.90